createdAt,value
2018-11-27T00:00:21.594Z,7.57
2018-11-27T00:02:50.245Z,7.70
2018-11-27T00:05:18.845Z,7.10
2018-11-27T00:07:47.487Z,8.03
2018-11-27T00:10:16.077Z,8.00
2018-11-27T00:12:44.711Z,8.53
2018-11-27T00:15:13.604Z,8.10
2018-11-27T00:17:42.192Z,7.87
2018-11-27T00:20:13.093Z,7.10
2018-11-27T00:22:41.772Z,7.10
2018-11-27T00:25:12.511Z,7.80
2018-11-27T00:27:41.225Z,9.17
2018-11-27T00:30:12.748Z,8.20
2018-11-27T00:32:41.518Z,8.87
2018-11-27T00:35:12.048Z,10.53
2018-11-27T00:37:40.731Z,8.50
2018-11-27T00:40:12.744Z,8.23
2018-11-27T00:42:41.357Z,8.17
2018-11-27T00:45:12.141Z,8.83
2018-11-27T00:47:40.923Z,8.33
2018-11-27T00:50:12.988Z,8.73
2018-11-27T00:52:41.632Z,8.13
2018-11-27T00:55:11.446Z,8.07
2018-11-27T00:57:40.663Z,8.20
2018-11-27T01:00:12.441Z,8.67
2018-11-27T01:02:41.080Z,9.20
2018-11-27T01:05:13.705Z,8.63
2018-11-27T01:07:42.344Z,8.70
2018-11-27T01:10:20.488Z,8.77
2018-11-27T01:12:49.164Z,10.60
2018-11-27T01:15:17.769Z,8.90
2018-11-27T01:17:50.648Z,8.80
2018-11-27T01:20:20.249Z,9.87
2018-11-27T01:22:48.859Z,8.47
2018-11-27T01:25:17.498Z,8.43
2018-11-27T01:27:46.136Z,9.80
2018-11-27T01:30:15.838Z,8.40
2018-11-27T01:32:44.555Z,8.90
2018-11-27T01:35:16.047Z,7.60
2018-11-27T01:37:44.861Z,8.10
2018-11-27T01:40:15.596Z,9.53
2018-11-27T01:42:44.356Z,8.20
2018-11-27T01:45:14.022Z,8.13
2018-11-27T01:47:42.653Z,9.60
2018-11-27T01:50:13.232Z,9.63
2018-11-27T01:52:42.017Z,11.47
2018-11-27T01:55:11.916Z,8.63
2018-11-27T01:57:40.513Z,7.70
2018-11-27T02:00:13.788Z,7.67
2018-11-27T02:02:42.389Z,8.97
2018-11-27T02:05:11.119Z,8.67
2018-11-27T02:07:39.736Z,9.57
2018-11-27T02:10:10.264Z,8.90
2018-11-27T02:12:39.124Z,9.17
2018-11-27T02:15:11.517Z,8.70
2018-11-27T02:17:40.167Z,8.50
2018-11-27T02:20:10.309Z,9.37
2018-11-27T02:22:39.018Z,10.57
2018-11-27T02:25:10.546Z,9.57
2018-11-27T02:27:39.210Z,9.10
2018-11-27T02:30:10.106Z,10.53
2018-11-27T02:32:38.740Z,9.07
2018-11-27T02:35:16.815Z,11.33
2018-11-27T02:37:45.769Z,13.30
2018-11-27T02:40:16.282Z,11.43
2018-11-27T02:42:44.953Z,10.97
2018-11-27T02:45:14.865Z,11.17
2018-11-27T02:47:43.973Z,12.27
2018-11-27T02:50:13.880Z,11.60
2018-11-27T02:52:42.520Z,11.17
2018-11-27T02:55:13.096Z,12.40
2018-11-27T02:57:41.732Z,12.60
2018-11-27T03:00:12.448Z,11.83
2018-11-27T03:02:41.169Z,11.77
2018-11-27T03:05:13.881Z,10.50
2018-11-27T03:07:42.506Z,10.13
2018-11-27T03:10:12.724Z,11.13
2018-11-27T03:12:41.392Z,10.00
2018-11-27T03:15:14.060Z,10.17
2018-11-27T03:17:42.741Z,10.53
2018-11-27T03:20:13.222Z,10.87
2018-11-27T03:22:41.925Z,10.47
2018-11-27T03:25:12.474Z,10.97
2018-11-27T03:27:41.089Z,11.30
2018-11-27T03:30:12.120Z,11.33
2018-11-27T03:32:40.761Z,14.10
2018-11-27T03:35:17.517Z,13.97
2018-11-27T03:37:47.324Z,12.53
2018-11-27T03:40:20.312Z,13.27
2018-11-27T03:42:49.053Z,12.90
2018-11-27T03:45:18.165Z,12.63
2018-11-27T03:47:46.883Z,10.90
2018-11-27T03:50:20.425Z,12.23
2018-11-27T03:52:49.052Z,12.10
2018-11-27T03:55:17.685Z,12.13
2018-11-27T03:57:46.284Z,13.90
2018-11-27T04:00:28.244Z,14.40
2018-11-27T04:03:03.745Z,15.03
2018-11-27T04:05:32.414Z,13.80
2018-11-27T04:08:01.027Z,13.87
2018-11-27T04:10:29.646Z,15.47
2018-11-27T04:12:58.304Z,12.60
2018-11-27T04:15:26.901Z,15.90
2018-11-27T04:17:55.509Z,14.37
2018-11-27T04:20:24.165Z,14.77
2018-11-27T04:22:52.770Z,16.50
2018-11-27T04:25:21.420Z,15.30
2018-11-27T04:27:50.026Z,16.67
2018-11-27T04:30:20.901Z,14.37
2018-11-27T04:32:49.542Z,13.70
2018-11-27T04:35:20.416Z,14.27
2018-11-27T04:37:49.333Z,14.43
2018-11-27T04:40:18.953Z,13.40
2018-11-27T04:42:47.615Z,13.40
2018-11-27T04:45:23.988Z,12.77
2018-11-27T04:47:52.661Z,13.50
2018-11-27T04:50:21.544Z,14.07
2018-11-27T04:52:50.266Z,14.87
2018-11-27T04:55:20.071Z,13.97
2018-11-27T04:57:49.753Z,12.00
2018-11-27T05:00:20.441Z,15.03
2018-11-27T05:02:49.164Z,16.17
2018-11-27T05:05:17.952Z,15.20
2018-11-27T05:07:46.742Z,15.47
2018-11-27T05:10:16.721Z,16.60
2018-11-27T05:12:45.481Z,16.57
2018-11-27T05:15:15.970Z,19.20
2018-11-27T05:17:48.027Z,19.80
2018-11-27T05:20:14.064Z,20.40
2018-11-27T05:22:42.682Z,18.87
2018-11-27T05:25:16.356Z,19.03
2018-11-27T05:27:46.963Z,19.40
2018-11-27T05:30:17.420Z,20.87
2018-11-27T05:32:46.060Z,21.50
2018-11-27T05:35:16.652Z,22.93
2018-11-27T05:37:46.566Z,24.33
2018-11-27T05:40:17.456Z,20.57
2018-11-27T05:42:46.469Z,22.63
2018-11-27T05:45:17.214Z,24.10
2018-11-27T05:47:45.922Z,22.73
2018-11-27T05:50:15.577Z,23.20
2018-11-27T05:52:44.309Z,25.13
2018-11-27T05:55:13.653Z,26.17
2018-11-27T05:57:42.905Z,24.20
2018-11-27T06:00:17.785Z,23.73
2018-11-27T06:02:47.339Z,26.83
2018-11-27T06:05:17.112Z,25.30
2018-11-27T06:07:45.860Z,25.33
2018-11-27T06:10:17.420Z,26.77
2018-11-27T06:12:46.152Z,24.30
2018-11-27T06:15:15.989Z,25.70
2018-11-27T06:17:44.872Z,24.87
2018-11-27T06:20:18.536Z,25.90
2018-11-27T06:22:47.294Z,23.50
2018-11-27T06:25:19.006Z,23.70
2018-11-27T06:27:52.701Z,23.30
2018-11-27T06:30:22.542Z,23.97
2018-11-27T06:32:51.153Z,23.50
2018-11-27T06:35:21.965Z,24.40
2018-11-27T06:37:50.572Z,23.87
2018-11-27T06:40:20.556Z,23.87
2018-11-27T06:42:49.222Z,24.87
2018-11-27T06:45:18.944Z,22.67
2018-11-27T06:47:48.684Z,22.53
2018-11-27T06:50:20.662Z,23.57
2018-11-27T06:52:49.418Z,25.07
2018-11-27T06:55:20.928Z,23.53
2018-11-27T06:57:49.573Z,21.70
2018-11-27T07:00:19.549Z,24.70
2018-11-27T07:02:48.173Z,23.33
2018-11-27T07:05:16.870Z,26.30
2018-11-27T07:07:45.473Z,22.90
2018-11-27T07:10:25.004Z,23.93
2018-11-27T07:12:56.281Z,23.17
2018-11-27T07:15:25.141Z,22.00
2018-11-27T07:17:53.781Z,22.57
2018-11-27T07:20:22.438Z,21.70
2018-11-27T07:22:51.052Z,22.90
2018-11-27T07:25:19.696Z,20.43
2018-11-27T07:27:49.453Z,22.93
2018-11-27T07:30:20.287Z,24.57
2018-11-27T07:32:47.992Z,22.10
2018-11-27T07:35:17.437Z,24.50
2018-11-27T07:37:46.158Z,22.07
2018-11-27T07:40:21.657Z,23.63
2018-11-27T07:42:52.789Z,22.03
2018-11-27T07:45:21.616Z,23.47
2018-11-27T07:47:50.226Z,21.30
2018-11-27T07:50:19.075Z,22.40
2018-11-27T07:52:52.165Z,21.60
2018-11-27T07:55:21.973Z,24.93
2018-11-27T07:57:51.486Z,23.53
2018-11-27T08:00:21.804Z,22.37
2018-11-27T08:02:54.442Z,20.93
2018-11-27T08:05:25.421Z,22.67
2018-11-27T08:07:55.121Z,22.27
2018-11-27T08:10:24.917Z,23.70
2018-11-27T08:12:53.569Z,24.00
2018-11-27T08:15:23.436Z,25.73
2018-11-27T08:17:52.105Z,25.03
2018-11-27T08:20:23.869Z,22.33
2018-11-27T08:22:52.520Z,23.33
2018-11-27T08:25:21.129Z,24.50
2018-11-27T08:27:49.750Z,24.83
2018-11-27T08:30:19.389Z,24.70
2018-11-27T08:32:48.135Z,25.03
2018-11-27T08:35:18.641Z,27.20
2018-11-27T08:37:48.173Z,26.17
2018-11-27T08:40:17.772Z,26.40
2018-11-27T08:42:46.445Z,26.00
2018-11-27T08:45:16.177Z,25.40
2018-11-27T08:47:45.041Z,25.00
2018-11-27T08:50:15.789Z,26.10
2018-11-27T08:52:46.787Z,26.13
2018-11-27T08:55:15.826Z,24.63
2018-11-27T08:57:45.819Z,26.27
2018-11-27T09:00:18.534Z,25.23
2018-11-27T09:02:47.234Z,24.57
2018-11-27T09:05:15.913Z,23.80
2018-11-27T09:07:45.017Z,24.20
2018-11-27T09:10:22.560Z,24.23
2018-11-27T09:12:51.248Z,24.53
2018-11-27T09:15:21.824Z,22.60
2018-11-27T09:18:01.996Z,23.17
2018-11-27T09:20:30.601Z,23.40
2018-11-27T09:22:59.213Z,23.03
2018-11-27T09:25:28.272Z,21.90
2018-11-27T09:27:56.874Z,19.60
2018-11-27T09:30:26.608Z,21.57
2018-11-27T09:32:56.114Z,20.27
2018-11-27T09:35:24.728Z,20.20
2018-11-27T09:37:53.338Z,18.40
2018-11-27T09:40:22.296Z,21.10
2018-11-27T09:42:50.900Z,21.17
2018-11-27T09:45:24.356Z,19.43
2018-11-27T09:47:56.220Z,19.47
2018-11-27T09:50:25.766Z,18.00
2018-11-27T09:52:54.553Z,19.23
2018-11-27T09:55:26.048Z,17.20
2018-11-27T09:57:59.133Z,17.20
2018-11-27T10:00:25.596Z,15.53
2018-11-27T10:02:55.481Z,16.17
2018-11-27T10:05:24.081Z,14.83
2018-11-27T10:07:52.709Z,13.57
2018-11-27T10:10:22.548Z,15.27
2018-11-27T10:12:51.240Z,14.97
2018-11-27T10:15:20.928Z,16.00
2018-11-27T10:17:53.528Z,15.20
2018-11-27T10:20:30.363Z,14.63
2018-11-27T10:22:58.956Z,14.77
2018-11-27T10:25:27.556Z,13.03
2018-11-27T10:27:56.189Z,15.30
2018-11-27T10:30:26.177Z,16.13
2018-11-27T10:32:56.105Z,14.37
2018-11-27T10:35:26.870Z,14.57
2018-11-27T10:37:55.488Z,12.20
2018-11-27T10:40:24.117Z,13.37
2018-11-27T10:42:52.792Z,10.53
2018-11-27T10:45:22.417Z,12.40
2018-11-27T10:47:54.261Z,12.17
2018-11-27T10:50:22.970Z,12.30
2018-11-27T10:52:56.567Z,13.20
2018-11-27T10:55:25.828Z,10.63
2018-11-27T10:57:54.479Z,13.00
2018-11-27T11:00:30.144Z,11.13
2018-11-27T11:03:04.582Z,11.93
2018-11-27T11:05:35.137Z,11.80
2018-11-27T11:08:03.819Z,12.43
2018-11-27T11:10:32.498Z,12.80
2018-11-27T11:13:01.151Z,12.60
2018-11-27T11:15:29.892Z,14.27
2018-11-27T11:17:58.516Z,12.27
2018-11-27T11:20:27.129Z,13.60
2018-11-27T11:22:55.755Z,13.80
2018-11-27T11:25:25.025Z,15.23
2018-11-27T11:27:56.872Z,13.70
2018-11-27T11:30:25.524Z,14.50
2018-11-27T11:32:54.152Z,14.67
2018-11-27T11:35:22.756Z,15.17
2018-11-27T11:37:51.454Z,14.83
2018-11-27T11:40:22.347Z,14.77
2018-11-27T11:42:53.056Z,18.43
2018-11-27T11:45:21.679Z,19.20
2018-11-27T11:47:50.322Z,18.43
2018-11-27T11:50:21.085Z,19.60
2018-11-27T11:52:51.318Z,18.17
2018-11-27T11:55:20.302Z,19.60
2018-11-27T11:57:49.076Z,20.77
2018-11-27T12:00:21.411Z,17.87
2018-11-27T12:02:50.011Z,19.07
2018-11-27T12:05:18.650Z,16.83
2018-11-27T12:07:47.284Z,16.47
2018-11-27T12:10:16.808Z,16.77
2018-11-27T12:12:47.351Z,15.10
2018-11-27T12:15:17.646Z,14.87
2018-11-27T12:17:46.875Z,16.33
2018-11-27T12:20:20.374Z,17.37
2018-11-27T12:22:50.306Z,18.80
2018-11-27T12:25:24.003Z,19.73
2018-11-27T12:27:47.891Z,17.23
2018-11-27T12:30:26.364Z,15.60
2018-11-27T12:32:55.024Z,16.90
2018-11-27T12:35:24.139Z,15.33
2018-11-27T12:37:53.036Z,15.27
2018-11-27T12:40:23.622Z,14.80
2018-11-27T12:42:52.662Z,16.10
2018-11-27T12:45:27.403Z,14.50
2018-11-27T12:47:56.908Z,17.17
2018-11-27T12:50:36.081Z,15.70
2018-11-27T12:53:04.742Z,16.10
2018-11-27T12:55:33.393Z,14.17
2018-11-27T12:58:02.016Z,14.10
2018-11-27T13:00:30.633Z,14.30
2018-11-27T13:02:59.254Z,16.00
2018-11-27T13:05:33.726Z,13.13
2018-11-27T13:08:03.695Z,15.47
2018-11-27T13:10:32.312Z,13.53
2018-11-27T13:13:01.305Z,13.60
2018-11-27T13:15:30.164Z,13.37
2018-11-27T13:17:58.812Z,13.50
2018-11-27T13:20:27.436Z,15.17
2018-11-27T13:22:56.045Z,12.40
2018-11-27T13:25:25.428Z,13.70
2018-11-27T13:27:54.896Z,14.30
2018-11-27T13:30:32.512Z,13.87
2018-11-27T13:33:08.350Z,13.60
2018-11-27T13:35:37.881Z,12.67
2018-11-27T13:38:07.485Z,14.20
2018-11-27T13:40:36.719Z,14.70
2018-11-27T13:43:06.956Z,14.50
2018-11-27T13:45:35.965Z,13.83
2018-11-27T13:48:05.092Z,13.33
2018-11-27T13:50:33.729Z,16.10
2018-11-27T13:53:02.368Z,14.93
2018-11-27T13:55:31.092Z,14.80
2018-11-27T13:57:59.730Z,15.43
2018-11-27T14:00:28.345Z,12.83
2018-11-27T14:02:57.049Z,13.03
2018-11-27T14:05:26.142Z,12.87
2018-11-27T14:07:54.782Z,13.57
2018-11-27T14:10:23.488Z,14.23
2018-11-27T14:12:52.110Z,14.33
2018-11-27T14:15:21.984Z,15.33
2018-11-27T14:17:51.284Z,13.00
2018-11-27T14:20:19.938Z,13.27
2018-11-27T14:22:49.367Z,13.10
2018-11-27T14:25:18.440Z,13.50
2018-11-27T14:27:48.804Z,11.27
2018-11-27T14:30:19.909Z,12.67
2018-11-27T14:32:48.832Z,11.73
2018-11-27T14:35:18.393Z,11.60
2018-11-27T14:37:48.012Z,12.27
2018-11-27T14:40:17.828Z,13.87
2018-11-27T14:42:46.594Z,12.00
2018-11-27T14:45:16.357Z,13.70
2018-11-27T14:47:47.044Z,13.10
2018-11-27T14:50:15.699Z,11.23
2018-11-27T14:52:44.328Z,12.77
2018-11-27T14:55:17.843Z,12.80
2018-11-27T14:57:46.594Z,14.17
2018-11-27T15:00:19.829Z,18.73
2018-11-27T15:02:48.463Z,19.10
2018-11-27T15:05:29.248Z,16.67
2018-11-27T15:07:57.880Z,18.93
2018-11-27T15:10:26.489Z,20.27
2018-11-27T15:12:55.115Z,19.23
2018-11-27T15:15:23.742Z,19.30
2018-11-27T15:17:52.344Z,20.73
2018-11-27T15:20:22.533Z,21.00
2018-11-27T15:22:51.198Z,20.80
2018-11-27T15:25:19.819Z,19.23
2018-11-27T15:27:48.714Z,19.00
2018-11-27T15:30:20.314Z,17.93
2018-11-27T15:32:49.293Z,19.17
2018-11-27T15:35:17.939Z,18.43
2018-11-27T15:37:46.566Z,19.60
2018-11-27T15:40:17.377Z,19.43
2018-11-27T15:42:46.121Z,18.60
2018-11-27T15:45:17.029Z,18.87
2018-11-27T15:47:45.770Z,17.70
2018-11-27T15:50:14.453Z,18.37
2018-11-27T15:52:43.063Z,22.03
2018-11-27T15:55:16.700Z,20.00
2018-11-27T15:57:45.692Z,19.10
2018-11-27T16:00:15.506Z,19.80
2018-11-27T16:02:44.385Z,18.77
2018-11-27T16:05:13.484Z,20.47
2018-11-27T16:07:42.112Z,19.50
2018-11-27T16:10:15.824Z,19.47
2018-11-27T16:12:44.482Z,18.87
2018-11-27T16:15:14.280Z,20.33
2018-11-27T16:17:43.189Z,20.00
2018-11-27T16:20:18.072Z,17.83
2018-11-27T16:22:49.644Z,18.13
2018-11-27T16:25:21.175Z,19.80
2018-11-27T16:27:49.817Z,18.00
2018-11-27T16:30:24.552Z,17.27
2018-11-27T16:32:53.197Z,16.70
2018-11-27T16:35:21.858Z,16.80
2018-11-27T16:37:53.836Z,15.80
2018-11-27T16:40:26.690Z,18.10
2018-11-27T16:42:55.334Z,17.10
2018-11-27T16:45:24.895Z,16.90
2018-11-27T16:47:53.555Z,16.50
2018-11-27T16:50:22.217Z,15.73
2018-11-27T16:52:50.916Z,16.73
2018-11-27T16:55:20.657Z,15.73
2018-11-27T16:57:49.304Z,17.10
2018-11-27T17:00:20.924Z,16.40
2018-11-27T17:02:50.650Z,16.90
2018-11-27T17:05:19.314Z,16.87
2018-11-27T17:07:47.941Z,16.80
2018-11-27T17:10:18.490Z,15.47
2018-11-27T17:12:48.121Z,15.60
2018-11-27T17:15:18.828Z,16.33
2018-11-27T17:17:47.473Z,15.60
2018-11-27T17:20:23.205Z,16.60
2018-11-27T17:22:52.093Z,19.30
2018-11-27T17:25:20.764Z,16.60
2018-11-27T17:27:49.493Z,15.97
2018-11-27T17:30:30.788Z,17.00
2018-11-27T17:32:59.506Z,15.60
2018-11-27T17:35:28.168Z,14.90
2018-11-27T17:37:56.916Z,16.53
2018-11-27T17:40:25.532Z,15.33
2018-11-27T17:42:54.136Z,15.63
2018-11-27T17:45:22.770Z,15.30
2018-11-27T17:47:51.412Z,17.57
2018-11-27T17:50:20.050Z,16.10
2018-11-27T17:52:48.650Z,14.60
2018-11-27T17:55:17.273Z,14.80
2018-11-27T17:57:45.938Z,16.40
2018-11-27T18:00:23.741Z,16.10
2018-11-27T18:02:53.671Z,14.80
2018-11-27T18:05:22.324Z,16.83
2018-11-27T18:07:50.956Z,14.70
2018-11-27T18:10:19.565Z,15.73
2018-11-27T18:12:48.183Z,16.60
2018-11-27T18:15:18.872Z,15.97
2018-11-27T18:17:47.485Z,16.00
2018-11-27T18:20:16.118Z,16.97
2018-11-27T18:22:44.776Z,15.30
2018-11-27T18:25:15.300Z,16.10
2018-11-27T18:27:45.060Z,16.53
2018-11-27T18:30:15.667Z,17.13
2018-11-27T18:32:44.313Z,17.10
2018-11-27T18:35:14.192Z,14.60
2018-11-27T18:37:42.859Z,14.40
2018-11-27T18:40:12.405Z,15.27
2018-11-27T18:42:41.089Z,15.90
2018-11-27T18:45:40.843Z,16.30
2018-11-27T18:48:09.441Z,15.93
2018-11-27T18:50:38.050Z,14.57
2018-11-27T18:53:06.970Z,14.70
2018-11-27T18:55:35.632Z,14.53
2018-11-27T18:58:04.278Z,14.30
2018-11-27T19:00:33.702Z,13.43
2018-11-27T19:03:02.344Z,13.50
2018-11-27T19:05:30.957Z,13.70
2018-11-27T19:07:59.997Z,12.43
2018-11-27T19:10:31.972Z,12.53
2018-11-27T19:13:00.764Z,13.57
2018-11-27T19:15:33.924Z,12.33
2018-11-27T19:18:20.844Z,14.33
2018-11-27T19:20:49.501Z,13.57
2018-11-27T19:23:19.185Z,14.83
2018-11-27T19:25:47.805Z,14.80
2018-11-27T19:28:16.457Z,17.00
2018-11-27T19:30:45.497Z,18.40
2018-11-27T19:33:14.245Z,16.33
2018-11-27T19:35:43.144Z,18.07
2018-11-27T19:38:15.028Z,16.80
2018-11-27T19:40:43.727Z,18.33
2018-11-27T19:43:12.321Z,18.27
2018-11-27T19:45:40.930Z,19.90
2018-11-27T19:48:10.474Z,20.00
2018-11-27T19:50:39.142Z,18.17
2018-11-27T19:53:12.287Z,18.83
2018-11-27T19:55:38.544Z,18.10
2018-11-27T19:58:07.872Z,20.93
2018-11-27T20:00:37.348Z,20.17
2018-11-27T20:03:07.821Z,18.90
2018-11-27T20:05:36.449Z,20.60
2018-11-27T20:08:06.100Z,20.37
2018-11-27T20:10:34.753Z,19.93
2018-11-27T20:13:03.380Z,18.90
2018-11-27T20:15:32.056Z,21.43
2018-11-27T20:18:00.689Z,20.53
2018-11-27T20:20:29.363Z,20.00
2018-11-27T20:22:58.365Z,19.87
2018-11-27T20:25:26.993Z,18.40
2018-11-27T20:27:55.596Z,20.73
2018-11-27T20:30:26.138Z,19.47
2018-11-27T20:32:59.188Z,19.20
2018-11-27T20:35:28.860Z,19.07
2018-11-27T20:37:58.294Z,18.30
2018-11-27T20:40:27.283Z,16.60
2018-11-27T20:42:55.933Z,16.50
2018-11-27T20:45:25.682Z,16.30
2018-11-27T20:48:30.374Z,16.03
2018-11-27T20:50:59.007Z,13.30
2018-11-27T20:53:27.651Z,12.67
2018-11-27T20:55:56.297Z,11.27
2018-11-27T20:58:25.005Z,9.90
2018-11-27T21:00:54.016Z,9.10
2018-11-27T21:03:22.626Z,9.70
2018-11-27T21:05:51.267Z,8.53
2018-11-27T21:08:19.901Z,8.67
2018-11-27T21:10:48.500Z,8.17
2018-11-27T21:13:17.100Z,8.30
2018-11-27T21:15:45.710Z,7.60
2018-11-27T21:18:14.309Z,7.70
2018-11-27T21:20:43.740Z,7.20
2018-11-27T21:23:12.385Z,7.43
2018-11-27T21:25:41.077Z,7.40
2018-11-27T21:28:16.150Z,6.90
2018-11-27T21:30:45.985Z,7.20
2018-11-27T21:33:14.592Z,7.03
2018-11-27T21:35:43.216Z,7.77
2018-11-27T21:38:11.853Z,7.73
2018-11-27T21:40:40.480Z,8.17
2018-11-27T21:43:09.203Z,7.40
2018-11-27T21:45:38.106Z,8.57
2018-11-27T21:48:07.565Z,8.17
2018-11-27T21:50:43.737Z,8.50
2018-11-27T21:53:12.387Z,8.33
2018-11-27T21:55:41.917Z,8.57
2018-11-27T21:58:10.541Z,8.20
2018-11-27T22:00:40.569Z,8.60
2018-11-27T22:03:09.821Z,7.60
2018-11-27T22:05:38.422Z,8.33
2018-11-27T22:08:08.132Z,8.20
2018-11-27T22:10:36.883Z,8.93
2018-11-27T22:13:07.197Z,8.50
2018-11-27T22:15:38.075Z,9.50
2018-11-27T22:18:09.543Z,8.77
2018-11-27T22:20:38.217Z,8.30
2018-11-27T22:23:07.803Z,9.23
2018-11-27T22:25:36.525Z,7.60
2018-11-27T22:28:05.947Z,7.40
2018-11-27T22:30:34.636Z,9.80
2018-11-27T22:33:03.905Z,8.70
2018-11-27T22:35:32.550Z,8.73
2018-11-27T22:38:01.214Z,9.37
2018-11-27T22:40:29.832Z,8.30
2018-11-27T22:42:58.456Z,8.63
2018-11-27T22:45:34.673Z,8.20
2018-11-27T22:48:03.309Z,7.90
2018-11-27T22:50:32.502Z,8.53
2018-11-27T22:53:01.109Z,8.07
2018-11-27T22:55:29.727Z,7.73
2018-11-27T22:57:58.336Z,7.93
2018-11-27T23:00:33.384Z,8.30
2018-11-27T23:03:02.177Z,7.63
2018-11-27T23:05:31.164Z,7.43
2018-11-27T23:07:59.845Z,7.73
2018-11-27T23:10:29.962Z,7.27
2018-11-27T23:12:58.620Z,8.43
2018-11-27T23:15:27.265Z,8.80
2018-11-27T23:17:55.960Z,7.80
2018-11-27T23:20:24.560Z,7.43
2018-11-27T23:22:53.169Z,7.10
2018-11-27T23:25:21.800Z,7.00
2018-11-27T23:27:50.915Z,7.83
2018-11-27T23:30:21.264Z,7.37
2018-11-27T23:32:49.937Z,8.60
2018-11-27T23:35:18.580Z,6.77
2018-11-27T23:37:47.271Z,7.30
2018-11-27T23:40:17.337Z,8.10
2018-11-27T23:42:46.426Z,8.50
2018-11-27T23:45:17.094Z,7.63
2018-11-27T23:47:45.745Z,7.60
2018-11-27T23:50:15.788Z,7.10
2018-11-27T23:52:44.663Z,6.20
2018-11-27T23:55:14.101Z,8.10
2018-11-27T23:57:42.962Z,7.90
